sensor_id;sensor_type;location;lat;lon;timestamp;temperature;humidity
17415;DHT22;8825;48.086;16.426;2023-03-02T00:01:47;6.60;59.50
17415;DHT22;8825;48.086;16.426;2023-03-02T00:04:35;6.60;59.40
17415;DHT22;8825;48.086;16.426;2023-03-02T00:07:05;6.70;59.40
17415;DHT22;8825;48.086;16.426;2023-03-02T00:09:34;6.60;59.30
17415;DHT22;8825;48.086;16.426;2023-03-02T00:12:02;6.60;59.30
17415;DHT22;8825;48.086;16.426;2023-03-02T00:14:30;6.70;59.20
17415;DHT22;8825;48.086;16.426;2023-03-02T00:16:58;6.70;59.10
17415;DHT22;8825;48.086;16.426;2023-03-02T00:19:25;6.70;58.90
17415;DHT22;8825;48.086;16.426;2023-03-02T00:21:53;6.70;58.80
17415;DHT22;8825;48.086;16.426;2023-03-02T00:24:20;6.80;58.70
17415;DHT22;8825;48.086;16.426;2023-03-02T00:26:48;6.80;58.60
17415;DHT22;8825;48.086;16.426;2023-03-02T00:29:15;6.80;58.50
17415;DHT22;8825;48.086;16.426;2023-03-02T00:31:43;6.80;58.30
17415;DHT22;8825;48.086;16.426;2023-03-02T00:34:10;6.80;58.20
17415;DHT22;8825;48.086;16.426;2023-03-02T00:36:38;6.80;58.20
17415;DHT22;8825;48.086;16.426;2023-03-02T00:39:05;6.90;58.30
17415;DHT22;8825;48.086;16.426;2023-03-02T00:41:33;6.90;58.20
17415;DHT22;8825;48.086;16.426;2023-03-02T00:44:00;6.90;58.10
17415;DHT22;8825;48.086;16.426;2023-03-02T00:46:28;6.90;58.10
17415;DHT22;8825;48.086;16.426;2023-03-02T00:48:55;6.90;57.90
17415;DHT22;8825;48.086;16.426;2023-03-02T00:51:23;6.90;57.80
17415;DHT22;8825;48.086;16.426;2023-03-02T00:53:51;7.00;57.80
17415;DHT22;8825;48.086;16.426;2023-03-02T00:56:18;7.00;57.80
17415;DHT22;8825;48.086;16.426;2023-03-02T00:58:46;7.00;57.80
17415;DHT22;8825;48.086;16.426;2023-03-02T01:01:13;7.00;57.40
17415;DHT22;8825;48.086;16.426;2023-03-02T01:03:41;7.00;57.80
17415;DHT22;8825;48.086;16.426;2023-03-02T01:06:14;7.00;57.70
17415;DHT22;8825;48.086;16.426;2023-03-02T01:08:42;7.00;57.70
17415;DHT22;8825;48.086;16.426;2023-03-02T01:11:19;7.00;57.70
17415;DHT22;8825;48.086;16.426;2023-03-02T01:13:47;7.10;57.70
17415;DHT22;8825;48.086;16.426;2023-03-02T01:16:15;7.00;57.70
17415;DHT22;8825;48.086;16.426;2023-03-02T01:18:43;7.00;57.70
17415;DHT22;8825;48.086;16.426;2023-03-02T01:21:12;7.00;57.60
17415;DHT22;8825;48.086;16.426;2023-03-02T01:23:41;7.00;57.50
17415;DHT22;8825;48.086;16.426;2023-03-02T01:26:09;7.00;57.50
17415;DHT22;8825;48.086;16.426;2023-03-02T01:28:56;7.00;57.50
17415;DHT22;8825;48.086;16.426;2023-03-02T01:31:24;7.00;57.20
17415;DHT22;8825;48.086;16.426;2023-03-02T01:33:52;7.00;57.40
17415;DHT22;8825;48.086;16.426;2023-03-02T01:36:21;7.00;57.40
17415;DHT22;8825;48.086;16.426;2023-03-02T01:38:49;7.00;57.40
17415;DHT22;8825;48.086;16.426;2023-03-02T01:41:17;7.00;57.40
17415;DHT22;8825;48.086;16.426;2023-03-02T01:43:44;7.00;57.40
17415;DHT22;8825;48.086;16.426;2023-03-02T01:46:23;7.00;57.50
17415;DHT22;8825;48.086;16.426;2023-03-02T01:49:03;7.00;57.50
17415;DHT22;8825;48.086;16.426;2023-03-02T01:51:34;7.00;57.40
17415;DHT22;8825;48.086;16.426;2023-03-02T01:54:05;7.00;57.40
17415;DHT22;8825;48.086;16.426;2023-03-02T01:56:35;6.90;57.30
17415;DHT22;8825;48.086;16.426;2023-03-02T01:59:09;6.90;57.30
17415;DHT22;8825;48.086;16.426;2023-03-02T02:01:36;6.90;57.30
17415;DHT22;8825;48.086;16.426;2023-03-02T02:04:05;6.90;57.30
17415;DHT22;8825;48.086;16.426;2023-03-02T02:06:47;6.90;57.30
17415;DHT22;8825;48.086;16.426;2023-03-02T02:09:17;6.90;57.30
17415;DHT22;8825;48.086;16.426;2023-03-02T02:11:45;6.90;57.30
17415;DHT22;8825;48.086;16.426;2023-03-02T02:14:13;6.90;57.40
17415;DHT22;8825;48.086;16.426;2023-03-02T02:16:41;6.80;57.20
17415;DHT22;8825;48.086;16.426;2023-03-02T02:21:45;6.80;57.00
17415;DHT22;8825;48.086;16.426;2023-03-02T02:24:20;6.70;56.80
17415;DHT22;8825;48.086;16.426;2023-03-02T02:26:53;6.70;56.70
17415;DHT22;8825;48.086;16.426;2023-03-02T02:29:43;6.60;56.70
17415;DHT22;8825;48.086;16.426;2023-03-02T02:32:20;6.60;56.60
17415;DHT22;8825;48.086;16.426;2023-03-02T02:35:06;6.50;56.60
17415;DHT22;8825;48.086;16.426;2023-03-02T02:37:48;6.40;56.70
17415;DHT22;8825;48.086;16.426;2023-03-02T02:40:38;6.30;56.80
17415;DHT22;8825;48.086;16.426;2023-03-02T02:43:05;6.30;56.90
17415;DHT22;8825;48.086;16.426;2023-03-02T02:45:33;6.20;57.00
17415;DHT22;8825;48.086;16.426;2023-03-02T02:48:01;6.10;57.10
17415;DHT22;8825;48.086;16.426;2023-03-02T02:50:32;6.10;57.20
17415;DHT22;8825;48.086;16.426;2023-03-02T02:53:13;6.00;57.40
17415;DHT22;8825;48.086;16.426;2023-03-02T02:55:32;6.00;57.50
17415;DHT22;8825;48.086;16.426;2023-03-02T02:58:05;5.90;57.50
17415;DHT22;8825;48.086;16.426;2023-03-02T03:00:33;5.90;57.60
17415;DHT22;8825;48.086;16.426;2023-03-02T03:03:05;5.80;57.70
17415;DHT22;8825;48.086;16.426;2023-03-02T03:05:31;5.80;57.80
17415;DHT22;8825;48.086;16.426;2023-03-02T03:08:09;5.70;58.00
17415;DHT22;8825;48.086;16.426;2023-03-02T03:10:39;5.70;58.00
17415;DHT22;8825;48.086;16.426;2023-03-02T03:13:08;5.60;58.00
17415;DHT22;8825;48.086;16.426;2023-03-02T03:15:37;5.60;58.00
17415;DHT22;8825;48.086;16.426;2023-03-02T03:18:05;5.50;58.10
17415;DHT22;8825;48.086;16.426;2023-03-02T03:20:33;5.50;58.10
17415;DHT22;8825;48.086;16.426;2023-03-02T03:23:00;5.50;58.20
17415;DHT22;8825;48.086;16.426;2023-03-02T03:25:28;5.40;58.20
17415;DHT22;8825;48.086;16.426;2023-03-02T03:27:57;5.40;58.30
17415;DHT22;8825;48.086;16.426;2023-03-02T03:30:25;5.40;58.30
17415;DHT22;8825;48.086;16.426;2023-03-02T03:32:52;5.30;58.30
17415;DHT22;8825;48.086;16.426;2023-03-02T03:35:20;5.30;58.50
17415;DHT22;8825;48.086;16.426;2023-03-02T03:37:47;5.20;58.40
17415;DHT22;8825;48.086;16.426;2023-03-02T03:40:15;5.20;58.50
17415;DHT22;8825;48.086;16.426;2023-03-02T03:42:42;5.10;58.60
17415;DHT22;8825;48.086;16.426;2023-03-02T03:45:10;5.10;58.70
17415;DHT22;8825;48.086;16.426;2023-03-02T03:47:38;5.00;58.80
17415;DHT22;8825;48.086;16.426;2023-03-02T03:50:05;5.00;58.90
17415;DHT22;8825;48.086;16.426;2023-03-02T03:52:33;4.90;58.90
17415;DHT22;8825;48.086;16.426;2023-03-02T03:55:01;4.80;58.80
17415;DHT22;8825;48.086;16.426;2023-03-02T03:57:29;4.80;59.00
17415;DHT22;8825;48.086;16.426;2023-03-02T03:59:57;4.70;59.10
17415;DHT22;8825;48.086;16.426;2023-03-02T04:02:24;4.70;59.20
17415;DHT22;8825;48.086;16.426;2023-03-02T04:04:52;4.70;59.20
17415;DHT22;8825;48.086;16.426;2023-03-02T04:07:19;4.60;59.10
17415;DHT22;8825;48.086;16.426;2023-03-02T04:09:47;4.60;59.20
17415;DHT22;8825;48.086;16.426;2023-03-02T04:12:14;4.60;59.30
17415;DHT22;8825;48.086;16.426;2023-03-02T04:14:42;4.50;59.30
17415;DHT22;8825;48.086;16.426;2023-03-02T04:17:10;4.50;59.50
17415;DHT22;8825;48.086;16.426;2023-03-02T04:19:38;4.40;59.70
17415;DHT22;8825;48.086;16.426;2023-03-02T04:22:06;4.40;59.70
17415;DHT22;8825;48.086;16.426;2023-03-02T04:24:33;4.40;59.80
17415;DHT22;8825;48.086;16.426;2023-03-02T04:27:01;4.30;59.80
17415;DHT22;8825;48.086;16.426;2023-03-02T04:29:28;4.20;59.80
17415;DHT22;8825;48.086;16.426;2023-03-02T04:31:57;4.20;60.00
17415;DHT22;8825;48.086;16.426;2023-03-02T04:34:25;4.20;60.10
17415;DHT22;8825;48.086;16.426;2023-03-02T04:36:53;4.20;60.10
17415;DHT22;8825;48.086;16.426;2023-03-02T04:39:20;4.10;60.30
17415;DHT22;8825;48.086;16.426;2023-03-02T04:41:48;4.10;60.30
17415;DHT22;8825;48.086;16.426;2023-03-02T04:44:17;4.10;60.30
17415;DHT22;8825;48.086;16.426;2023-03-02T04:46:45;4.00;60.30
17415;DHT22;8825;48.086;16.426;2023-03-02T04:49:14;4.00;60.40
17415;DHT22;8825;48.086;16.426;2023-03-02T04:51:44;4.00;60.50
17415;DHT22;8825;48.086;16.426;2023-03-02T04:54:23;3.90;60.60
17415;DHT22;8825;48.086;16.426;2023-03-02T04:56:52;3.90;60.70
17415;DHT22;8825;48.086;16.426;2023-03-02T04:59:22;3.80;60.80
17415;DHT22;8825;48.086;16.426;2023-03-02T05:01:53;3.80;60.90
17415;DHT22;8825;48.086;16.426;2023-03-02T05:04:21;3.80;61.00
17415;DHT22;8825;48.086;16.426;2023-03-02T05:06:49;3.70;61.00
17415;DHT22;8825;48.086;16.426;2023-03-02T05:09:16;3.70;61.10
17415;DHT22;8825;48.086;16.426;2023-03-02T05:11:44;3.60;60.80
17415;DHT22;8825;48.086;16.426;2023-03-02T05:14:12;3.60;60.40
17415;DHT22;8825;48.086;16.426;2023-03-02T05:16:40;3.50;60.10
17415;DHT22;8825;48.086;16.426;2023-03-02T05:19:09;3.50;60.20
17415;DHT22;8825;48.086;16.426;2023-03-02T05:21:38;3.40;60.30
17415;DHT22;8825;48.086;16.426;2023-03-02T05:24:06;3.40;60.40
17415;DHT22;8825;48.086;16.426;2023-03-02T05:26:34;3.40;60.50
17415;DHT22;8825;48.086;16.426;2023-03-02T05:29:02;3.40;60.50
17415;DHT22;8825;48.086;16.426;2023-03-02T05:31:32;3.30;60.60
17415;DHT22;8825;48.086;16.426;2023-03-02T05:34:02;3.30;60.80
17415;DHT22;8825;48.086;16.426;2023-03-02T05:36:30;3.30;61.00
17415;DHT22;8825;48.086;16.426;2023-03-02T05:38:57;3.20;61.10
17415;DHT22;8825;48.086;16.426;2023-03-02T05:41:25;3.10;61.10
17415;DHT22;8825;48.086;16.426;2023-03-02T05:43:53;3.10;61.10
17415;DHT22;8825;48.086;16.426;2023-03-02T05:46:20;3.10;61.30
17415;DHT22;8825;48.086;16.426;2023-03-02T05:48:48;3.00;61.40
17415;DHT22;8825;48.086;16.426;2023-03-02T05:51:16;3.10;61.70
17415;DHT22;8825;48.086;16.426;2023-03-02T05:53:43;3.00;61.90
17415;DHT22;8825;48.086;16.426;2023-03-02T05:56:11;3.00;62.10
17415;DHT22;8825;48.086;16.426;2023-03-02T05:58:38;3.00;62.30
17415;DHT22;8825;48.086;16.426;2023-03-02T06:01:10;2.90;62.40
17415;DHT22;8825;48.086;16.426;2023-03-02T06:03:38;3.00;62.70
17415;DHT22;8825;48.086;16.426;2023-03-02T06:06:05;3.00;62.70
17415;DHT22;8825;48.086;16.426;2023-03-02T06:08:33;3.00;62.90
17415;DHT22;8825;48.086;16.426;2023-03-02T06:11:00;3.00;62.90
17415;DHT22;8825;48.086;16.426;2023-03-02T06:13:28;3.00;63.80
17415;DHT22;8825;48.086;16.426;2023-03-02T06:15:55;3.00;63.10
17415;DHT22;8825;48.086;16.426;2023-03-02T06:18:23;3.10;63.30
17415;DHT22;8825;48.086;16.426;2023-03-02T06:20:50;3.10;63.30
17415;DHT22;8825;48.086;16.426;2023-03-02T06:23:18;3.10;63.40
17415;DHT22;8825;48.086;16.426;2023-03-02T06:25:45;3.10;63.50
17415;DHT22;8825;48.086;16.426;2023-03-02T06:28:15;3.20;63.70
17415;DHT22;8825;48.086;16.426;2023-03-02T06:30:45;3.20;63.60
17415;DHT22;8825;48.086;16.426;2023-03-02T06:33:15;3.20;63.80
17415;DHT22;8825;48.086;16.426;2023-03-02T06:35:44;3.30;63.80
17415;DHT22;8825;48.086;16.426;2023-03-02T06:38:12;3.30;63.70
17415;DHT22;8825;48.086;16.426;2023-03-02T06:40:40;3.30;63.60
17415;DHT22;8825;48.086;16.426;2023-03-02T06:43:07;3.40;63.60
17415;DHT22;8825;48.086;16.426;2023-03-02T06:45:35;3.50;63.70
17415;DHT22;8825;48.086;16.426;2023-03-02T06:48:03;3.50;63.60
17415;DHT22;8825;48.086;16.426;2023-03-02T06:50:31;3.60;63.70
17415;DHT22;8825;48.086;16.426;2023-03-02T06:52:59;3.60;63.70
17415;DHT22;8825;48.086;16.426;2023-03-02T06:55:27;3.70;63.80
17415;DHT22;8825;48.086;16.426;2023-03-02T06:57:54;3.80;63.80
17415;DHT22;8825;48.086;16.426;2023-03-02T07:00:22;3.80;63.80
17415;DHT22;8825;48.086;16.426;2023-03-02T07:02:54;3.90;63.80
17415;DHT22;8825;48.086;16.426;2023-03-02T07:05:23;3.90;64.40
17415;DHT22;8825;48.086;16.426;2023-03-02T07:07:51;3.80;65.00
17415;DHT22;8825;48.086;16.426;2023-03-02T07:10:19;3.80;65.50
17415;DHT22;8825;48.086;16.426;2023-03-02T07:12:46;3.70;65.40
17415;DHT22;8825;48.086;16.426;2023-03-02T07:15:14;3.70;65.90
17415;DHT22;8825;48.086;16.426;2023-03-02T07:17:43;3.80;65.90
17415;DHT22;8825;48.086;16.426;2023-03-02T07:20:13;3.90;66.00
17415;DHT22;8825;48.086;16.426;2023-03-02T07:22:41;4.00;66.00
17415;DHT22;8825;48.086;16.426;2023-03-02T07:25:10;4.00;65.80
17415;DHT22;8825;48.086;16.426;2023-03-02T07:27:38;4.10;65.80
17415;DHT22;8825;48.086;16.426;2023-03-02T07:30:07;4.20;65.60
17415;DHT22;8825;48.086;16.426;2023-03-02T07:32:34;4.30;65.50
17415;DHT22;8825;48.086;16.426;2023-03-02T07:35:02;4.40;65.10
17415;DHT22;8825;48.086;16.426;2023-03-02T07:37:30;4.50;64.60
17415;DHT22;8825;48.086;16.426;2023-03-02T07:39:58;4.60;64.10
17415;DHT22;8825;48.086;16.426;2023-03-02T07:42:25;4.70;63.00
17415;DHT22;8825;48.086;16.426;2023-03-02T07:44:53;4.80;62.50
17415;DHT22;8825;48.086;16.426;2023-03-02T07:47:21;4.90;62.20
17415;DHT22;8825;48.086;16.426;2023-03-02T07:49:49;5.00;61.80
17415;DHT22;8825;48.086;16.426;2023-03-02T07:52:17;5.10;61.20
17415;DHT22;8825;48.086;16.426;2023-03-02T07:54:45;5.20;60.70
17415;DHT22;8825;48.086;16.426;2023-03-02T07:57:12;5.30;60.50
17415;DHT22;8825;48.086;16.426;2023-03-02T07:59:42;5.40;60.00
17415;DHT22;8825;48.086;16.426;2023-03-02T08:02:12;5.50;59.10
17415;DHT22;8825;48.086;16.426;2023-03-02T08:04:40;5.60;59.10
17415;DHT22;8825;48.086;16.426;2023-03-02T08:07:08;5.70;58.90
17415;DHT22;8825;48.086;16.426;2023-03-02T08:09:38;5.80;58.70
17415;DHT22;8825;48.086;16.426;2023-03-02T08:12:06;5.90;58.20
17415;DHT22;8825;48.086;16.426;2023-03-02T08:14:33;6.00;58.00
17415;DHT22;8825;48.086;16.426;2023-03-02T08:17:02;6.00;58.20
17415;DHT22;8825;48.086;16.426;2023-03-02T08:19:30;6.10;57.60
17415;DHT22;8825;48.086;16.426;2023-03-02T08:21:58;6.20;57.50
17415;DHT22;8825;48.086;16.426;2023-03-02T08:24:26;6.30;57.40
17415;DHT22;8825;48.086;16.426;2023-03-02T08:26:54;6.40;57.30
17415;DHT22;8825;48.086;16.426;2023-03-02T08:29:22;6.50;57.60
17415;DHT22;8825;48.086;16.426;2023-03-02T08:31:50;6.60;56.80
17415;DHT22;8825;48.086;16.426;2023-03-02T08:34:17;6.70;56.50
17415;DHT22;8825;48.086;16.426;2023-03-02T08:36:45;6.70;56.30
17415;DHT22;8825;48.086;16.426;2023-03-02T08:39:12;6.80;56.00
17415;DHT22;8825;48.086;16.426;2023-03-02T08:41:40;6.90;55.80
17415;DHT22;8825;48.086;16.426;2023-03-02T08:44:08;7.00;55.50
17415;DHT22;8825;48.086;16.426;2023-03-02T08:46:35;7.10;55.20
17415;DHT22;8825;48.086;16.426;2023-03-02T08:49:03;7.20;54.60
17415;DHT22;8825;48.086;16.426;2023-03-02T08:51:30;7.30;54.60
17415;DHT22;8825;48.086;16.426;2023-03-02T08:53:58;7.30;54.30
17415;DHT22;8825;48.086;16.426;2023-03-02T08:56:28;7.40;54.40
17415;DHT22;8825;48.086;16.426;2023-03-02T08:58:58;7.50;54.30
17415;DHT22;8825;48.086;16.426;2023-03-02T09:01:28;7.60;54.10
17415;DHT22;8825;48.086;16.426;2023-03-02T09:03:57;7.60;53.80
17415;DHT22;8825;48.086;16.426;2023-03-02T09:06:27;7.70;53.70
17415;DHT22;8825;48.086;16.426;2023-03-02T09:08:55;7.90;53.70
17415;DHT22;8825;48.086;16.426;2023-03-02T09:11:23;8.00;53.40
17415;DHT22;8825;48.086;16.426;2023-03-02T09:13:51;8.20;53.40
17415;DHT22;8825;48.086;16.426;2023-03-02T09:16:20;8.40;53.20
17415;DHT22;8825;48.086;16.426;2023-03-02T09:18:47;8.50;52.00
17415;DHT22;8825;48.086;16.426;2023-03-02T09:21:15;8.70;52.20
17415;DHT22;8825;48.086;16.426;2023-03-02T09:23:42;8.80;52.00
17415;DHT22;8825;48.086;16.426;2023-03-02T09:26:10;9.00;52.00
17415;DHT22;8825;48.086;16.426;2023-03-02T09:28:38;9.20;51.60
17415;DHT22;8825;48.086;16.426;2023-03-02T09:31:06;9.60;51.30
17415;DHT22;8825;48.086;16.426;2023-03-02T09:33:34;10.10;50.60
17415;DHT22;8825;48.086;16.426;2023-03-02T09:36:07;10.70;49.30
17415;DHT22;8825;48.086;16.426;2023-03-02T09:38:37;11.20;48.20
17415;DHT22;8825;48.086;16.426;2023-03-02T09:41:33;11.70;47.50
17415;DHT22;8825;48.086;16.426;2023-03-02T09:44:18;12.20;46.10
17415;DHT22;8825;48.086;16.426;2023-03-02T09:52:27;13.50;43.50
17415;DHT22;8825;48.086;16.426;2023-03-02T09:54:55;13.90;42.30
17415;DHT22;8825;48.086;16.426;2023-03-02T09:57:31;14.30;41.70
17415;DHT22;8825;48.086;16.426;2023-03-02T09:59:59;14.70;40.60
17415;DHT22;8825;48.086;16.426;2023-03-02T10:02:58;15.00;39.90
17415;DHT22;8825;48.086;16.426;2023-03-02T10:05:30;15.30;39.60
17415;DHT22;8825;48.086;16.426;2023-03-02T10:07:59;15.60;38.60
17415;DHT22;8825;48.086;16.426;2023-03-02T10:13:21;16.30;37.60
17415;DHT22;8825;48.086;16.426;2023-03-02T10:18:48;16.80;36.40
17415;DHT22;8825;48.086;16.426;2023-03-02T10:26:53;17.40;34.80
17415;DHT22;8825;48.086;16.426;2023-03-02T10:32:23;17.80;34.60
17415;DHT22;8825;48.086;16.426;2023-03-02T10:34:52;17.90;34.30
17415;DHT22;8825;48.086;16.426;2023-03-02T10:37:23;18.00;34.00
17415;DHT22;8825;48.086;16.426;2023-03-02T10:39:51;18.20;33.40
17415;DHT22;8825;48.086;16.426;2023-03-02T10:42:45;18.30;33.20
17415;DHT22;8825;48.086;16.426;2023-03-02T10:44:54;18.40;32.80
17415;DHT22;8825;48.086;16.426;2023-03-02T10:47:27;18.60;32.80
17415;DHT22;8825;48.086;16.426;2023-03-02T10:49:56;18.70;32.10
17415;DHT22;8825;48.086;16.426;2023-03-02T10:52:26;18.80;32.00
17415;DHT22;8825;48.086;16.426;2023-03-02T10:55:05;19.00;31.90
17415;DHT22;8825;48.086;16.426;2023-03-02T10:57:38;19.10;31.60
17415;DHT22;8825;48.086;16.426;2023-03-02T11:00:21;19.10;31.00
17415;DHT22;8825;48.086;16.426;2023-03-02T11:02:57;19.10;31.10
17415;DHT22;8825;48.086;16.426;2023-03-02T11:05:34;19.10;30.60
17415;DHT22;8825;48.086;16.426;2023-03-02T11:08:00;19.10;30.00
17415;DHT22;8825;48.086;16.426;2023-03-02T11:10:31;18.90;30.40
17415;DHT22;8825;48.086;16.426;2023-03-02T11:13:01;18.80;30.80
17415;DHT22;8825;48.086;16.426;2023-03-02T11:18:37;18.40;31.40
17415;DHT22;8825;48.086;16.426;2023-03-02T11:22:04;18.20;31.30
17415;DHT22;8825;48.086;16.426;2023-03-02T11:23:57;17.90;31.90
17415;DHT22;8825;48.086;16.426;2023-03-02T11:29:23;17.40;32.70
17415;DHT22;8825;48.086;16.426;2023-03-02T11:31:51;17.10;32.80
17415;DHT22;8825;48.086;16.426;2023-03-02T11:34:23;16.80;33.10
17415;DHT22;8825;48.086;16.426;2023-03-02T11:37:35;16.70;34.20
17415;DHT22;8825;48.086;16.426;2023-03-02T11:39:27;16.50;34.10
17415;DHT22;8825;48.086;16.426;2023-03-02T11:41:53;16.40;34.70
17415;DHT22;8825;48.086;16.426;2023-03-02T11:44:21;16.40;35.80
17415;DHT22;8825;48.086;16.426;2023-03-02T11:46:57;16.40;36.00
17415;DHT22;8825;48.086;16.426;2023-03-02T11:49:41;16.40;36.10
17415;DHT22;8825;48.086;16.426;2023-03-02T11:52:16;16.40;36.00
17415;DHT22;8825;48.086;16.426;2023-03-02T11:54:46;16.30;35.50
17415;DHT22;8825;48.086;16.426;2023-03-02T11:57:30;16.00;35.10
17415;DHT22;8825;48.086;16.426;2023-03-02T11:59:54;15.80;35.10
17415;DHT22;8825;48.086;16.426;2023-03-02T12:02:25;15.60;34.80
17415;DHT22;8825;48.086;16.426;2023-03-02T12:05:27;15.50;35.00
17415;DHT22;8825;48.086;16.426;2023-03-02T12:07:36;15.40;35.10
17415;DHT22;8825;48.086;16.426;2023-03-02T12:10:22;15.30;34.80
17415;DHT22;8825;48.086;16.426;2023-03-02T12:12:45;15.20;34.90
17415;DHT22;8825;48.086;16.426;2023-03-02T12:15:34;14.90;35.00
17415;DHT22;8825;48.086;16.426;2023-03-02T12:21:15;14.70;35.20
17415;DHT22;8825;48.086;16.426;2023-03-02T12:29:20;14.70;35.90
17415;DHT22;8825;48.086;16.426;2023-03-02T12:31:49;14.80;35.90
17415;DHT22;8825;48.086;16.426;2023-03-02T12:34:37;14.80;36.30
17415;DHT22;8825;48.086;16.426;2023-03-02T12:37:13;14.90;36.00
17415;DHT22;8825;48.086;16.426;2023-03-02T12:51:00;15.10;35.20
17415;DHT22;8825;48.086;16.426;2023-03-02T12:53:28;15.10;35.40
17415;DHT22;8825;48.086;16.426;2023-03-02T12:55:56;15.20;35.90
17415;DHT22;8825;48.086;16.426;2023-03-02T12:58:26;15.20;36.10
17415;DHT22;8825;48.086;16.426;2023-03-02T13:00:59;15.30;36.40
17415;DHT22;8825;48.086;16.426;2023-03-02T13:03:29;15.40;35.90
17415;DHT22;8825;48.086;16.426;2023-03-02T13:06:10;15.40;35.50
17415;DHT22;8825;48.086;16.426;2023-03-02T13:08:31;15.30;35.20
17415;DHT22;8825;48.086;16.426;2023-03-02T13:11:00;15.30;35.50
17415;DHT22;8825;48.086;16.426;2023-03-02T13:16:04;15.30;35.50
17415;DHT22;8825;48.086;16.426;2023-03-02T13:18:35;15.30;35.00
17415;DHT22;8825;48.086;16.426;2023-03-02T13:21:05;15.40;34.30
17415;DHT22;8825;48.086;16.426;2023-03-02T13:23:33;15.40;33.80
17415;DHT22;8825;48.086;16.426;2023-03-02T13:26:03;15.40;33.80
17415;DHT22;8825;48.086;16.426;2023-03-02T13:28:38;15.50;33.50
17415;DHT22;8825;48.086;16.426;2023-03-02T13:31:21;15.40;32.70
17415;DHT22;8825;48.086;16.426;2023-03-02T13:33:46;15.30;32.80
17415;DHT22;8825;48.086;16.426;2023-03-02T13:36:19;15.20;32.90
17415;DHT22;8825;48.086;16.426;2023-03-02T13:38:52;15.20;33.40
17415;DHT22;8825;48.086;16.426;2023-03-02T13:41:26;15.30;34.70
17415;DHT22;8825;48.086;16.426;2023-03-02T13:43:54;15.40;34.30
17415;DHT22;8825;48.086;16.426;2023-03-02T13:46:25;15.40;33.60
17415;DHT22;8825;48.086;16.426;2023-03-02T13:49:05;15.40;33.00
17415;DHT22;8825;48.086;16.426;2023-03-02T13:51:40;15.40;32.90
17415;DHT22;8825;48.086;16.426;2023-03-02T13:54:19;15.30;32.10
17415;DHT22;8825;48.086;16.426;2023-03-02T13:56:48;15.30;32.30
17415;DHT22;8825;48.086;16.426;2023-03-02T13:59:18;15.30;32.10
17415;DHT22;8825;48.086;16.426;2023-03-02T14:01:46;15.20;32.00
17415;DHT22;8825;48.086;16.426;2023-03-02T14:04:15;15.20;32.10
17415;DHT22;8825;48.086;16.426;2023-03-02T14:06:44;15.20;33.00
17415;DHT22;8825;48.086;16.426;2023-03-02T14:09:11;15.30;34.00
17415;DHT22;8825;48.086;16.426;2023-03-02T14:11:44;15.30;31.90
17415;DHT22;8825;48.086;16.426;2023-03-02T14:14:15;15.30;31.40
17415;DHT22;8825;48.086;16.426;2023-03-02T14:16:43;15.30;31.20
17415;DHT22;8825;48.086;16.426;2023-03-02T14:19:14;15.30;31.40
17415;DHT22;8825;48.086;16.426;2023-03-02T14:21:44;15.20;31.30
17415;DHT22;8825;48.086;16.426;2023-03-02T14:24:12;15.30;31.10
17415;DHT22;8825;48.086;16.426;2023-03-02T14:26:42;15.30;31.40
17415;DHT22;8825;48.086;16.426;2023-03-02T14:29:20;15.20;31.30
17415;DHT22;8825;48.086;16.426;2023-03-02T14:31:47;15.20;31.30
17415;DHT22;8825;48.086;16.426;2023-03-02T14:34:16;15.20;31.70
17415;DHT22;8825;48.086;16.426;2023-03-02T14:36:46;15.20;31.60
17415;DHT22;8825;48.086;16.426;2023-03-02T14:39:26;15.10;31.60
17415;DHT22;8825;48.086;16.426;2023-03-02T14:41:49;15.10;31.10
17415;DHT22;8825;48.086;16.426;2023-03-02T14:44:17;14.90;31.30
17415;DHT22;8825;48.086;16.426;2023-03-02T14:46:45;15.00;31.20
17415;DHT22;8825;48.086;16.426;2023-03-02T14:49:12;15.00;32.20
17415;DHT22;8825;48.086;16.426;2023-03-02T14:51:41;15.10;33.20
17415;DHT22;8825;48.086;16.426;2023-03-02T14:54:12;15.20;33.60
17415;DHT22;8825;48.086;16.426;2023-03-02T14:56:40;15.40;34.00
17415;DHT22;8825;48.086;16.426;2023-03-02T14:59:13;15.40;32.10
17415;DHT22;8825;48.086;16.426;2023-03-02T15:01:41;15.40;31.60
17415;DHT22;8825;48.086;16.426;2023-03-02T15:04:11;15.30;31.20
17415;DHT22;8825;48.086;16.426;2023-03-02T15:06:40;15.20;31.20
17415;DHT22;8825;48.086;16.426;2023-03-02T15:09:10;15.00;31.00
17415;DHT22;8825;48.086;16.426;2023-03-02T15:11:38;14.90;31.20
17415;DHT22;8825;48.086;16.426;2023-03-02T15:14:05;14.90;31.60
17415;DHT22;8825;48.086;16.426;2023-03-02T15:16:33;14.80;31.50
17415;DHT22;8825;48.086;16.426;2023-03-02T15:19:01;14.80;31.20
17415;DHT22;8825;48.086;16.426;2023-03-02T15:21:28;14.70;30.90
17415;DHT22;8825;48.086;16.426;2023-03-02T15:23:56;14.70;31.00
17415;DHT22;8825;48.086;16.426;2023-03-02T15:26:23;14.70;31.00
17415;DHT22;8825;48.086;16.426;2023-03-02T15:28:51;14.70;31.10
17415;DHT22;8825;48.086;16.426;2023-03-02T15:31:19;14.60;31.10
17415;DHT22;8825;48.086;16.426;2023-03-02T15:33:47;14.60;30.80
17415;DHT22;8825;48.086;16.426;2023-03-02T15:36:16;14.60;30.90
17415;DHT22;8825;48.086;16.426;2023-03-02T15:38:47;14.50;31.00
17415;DHT22;8825;48.086;16.426;2023-03-02T15:41:13;14.50;30.90
17415;DHT22;8825;48.086;16.426;2023-03-02T15:43:41;14.50;30.90
17415;DHT22;8825;48.086;16.426;2023-03-02T15:46:08;14.40;30.80
17415;DHT22;8825;48.086;16.426;2023-03-02T15:48:37;14.40;31.00
17415;DHT22;8825;48.086;16.426;2023-03-02T15:51:07;14.30;30.90
17415;DHT22;8825;48.086;16.426;2023-03-02T15:53:36;14.30;31.00
17415;DHT22;8825;48.086;16.426;2023-03-02T15:56:09;14.20;31.00
17415;DHT22;8825;48.086;16.426;2023-03-02T15:58:39;14.20;31.30
17415;DHT22;8825;48.086;16.426;2023-03-02T16:01:08;14.10;31.50
17415;DHT22;8825;48.086;16.426;2023-03-02T16:03:37;14.00;31.40
17415;DHT22;8825;48.086;16.426;2023-03-02T16:06:04;13.90;31.40
17415;DHT22;8825;48.086;16.426;2023-03-02T16:08:35;13.80;31.40
17415;DHT22;8825;48.086;16.426;2023-03-02T16:11:05;13.70;31.60
17415;DHT22;8825;48.086;16.426;2023-03-02T16:13:33;13.70;31.90
17415;DHT22;8825;48.086;16.426;2023-03-02T16:16:05;13.50;32.30
17415;DHT22;8825;48.086;16.426;2023-03-02T16:18:32;13.40;33.30
17415;DHT22;8825;48.086;16.426;2023-03-02T16:21:00;13.20;34.40
17415;DHT22;8825;48.086;16.426;2023-03-02T16:23:28;13.10;35.10
17415;DHT22;8825;48.086;16.426;2023-03-02T16:26:05;13.00;35.50
17415;DHT22;8825;48.086;16.426;2023-03-02T16:28:26;12.90;35.70
17415;DHT22;8825;48.086;16.426;2023-03-02T16:31:01;12.80;35.80
17415;DHT22;8825;48.086;16.426;2023-03-02T16:33:24;12.80;36.10
17415;DHT22;8825;48.086;16.426;2023-03-02T16:35:52;12.70;36.20
17415;DHT22;8825;48.086;16.426;2023-03-02T16:38:19;12.60;36.40
17415;DHT22;8825;48.086;16.426;2023-03-02T16:40:47;12.50;36.50
17415;DHT22;8825;48.086;16.426;2023-03-02T16:43:15;12.40;36.70
17415;DHT22;8825;48.086;16.426;2023-03-02T16:45:43;12.20;36.90
17415;DHT22;8825;48.086;16.426;2023-03-02T16:48:11;12.10;36.80